createdAt,value
2019-05-22T00:00:13.380Z,95286
2019-05-22T00:01:15.909Z,95288.5
2019-05-22T00:02:18.073Z,95290.6
2019-05-22T00:03:20.495Z,95289.6
2019-05-22T00:04:22.658Z,95294.1
2019-05-22T00:05:25.082Z,95293.3
2019-05-22T00:06:27.262Z,95294.8
2019-05-22T00:07:29.398Z,95297.6
2019-05-22T00:08:31.923Z,95296.3
2019-05-22T00:09:34.077Z,95293.4
2019-05-22T00:10:36.249Z,95295.7
2019-05-22T00:11:38.673Z,95297.3
2019-05-22T00:13:46.082Z,95297.1
2019-05-22T00:14:48.267Z,95296.8
2019-05-22T00:15:50.417Z,95293.9
2019-05-22T00:16:52.011Z,95300.1
2019-05-22T00:17:54.163Z,95295
2019-05-22T00:18:56.598Z,95295.9
2019-05-22T00:19:58.483Z,95296.5
2019-05-22T00:21:01.023Z,95301.2
2019-05-22T00:22:03.468Z,95297.1
2019-05-22T00:23:05.708Z,95296.5
2019-05-22T00:24:08.190Z,95295.1
2019-05-22T00:25:10.678Z,95295.9
2019-05-22T00:26:12.822Z,95297.7
2019-05-22T00:27:14.707Z,95298.7
2019-05-22T00:28:17.133Z,95300.5
2019-05-22T00:29:19.295Z,95304.6
2019-05-22T00:30:21.738Z,95299.4
2019-05-22T00:31:23.903Z,95298.4
2019-05-22T00:32:26.066Z,95301.7
2019-05-22T00:33:28.199Z,95303.1
2019-05-22T00:34:30.627Z,95300.1
2019-05-22T00:35:32.767Z,95299.5
2019-05-22T00:36:34.928Z,95296.3
2019-05-22T00:37:37.356Z,95300.6
2019-05-22T00:38:39.492Z,95296.8
2019-05-22T00:39:41.657Z,95302
2019-05-22T00:40:43.854Z,95297.4
2019-05-22T00:41:46.294Z,95299.7
2019-05-22T00:43:53.725Z,95299.6
2019-05-22T00:44:56.165Z,95301.7
2019-05-22T00:45:58.663Z,95302.2
2019-05-22T00:47:00.831Z,95303.3
2019-05-22T00:48:02.738Z,95301.4
2019-05-22T00:49:05.508Z,95302.8
2019-05-22T00:50:07.948Z,95307.4
2019-05-22T00:51:10.109Z,95305.4
2019-05-22T00:52:12.525Z,95308.2
2019-05-22T00:53:14.425Z,95307.4
2019-05-22T00:54:16.855Z,95311.6
2019-05-22T00:55:19.516Z,95311.8
2019-05-22T00:56:21.954Z,95315.2
2019-05-22T00:57:24.422Z,95314
2019-05-22T00:58:41.234Z,95313.6
2019-05-22T00:59:43.434Z,95318.3
2019-05-22T01:00:45.615Z,95315.8
2019-05-22T01:01:47.810Z,95317.1
2019-05-22T01:02:50.876Z,95318.1
2019-05-22T01:03:53.305Z,95319.4
2019-05-22T01:04:55.735Z,95315
2019-05-22T01:05:57.885Z,95315.6
2019-05-22T01:07:00.075Z,95318.8
2019-05-22T01:08:02.223Z,95320.2
2019-05-22T01:09:04.110Z,95312.5
2019-05-22T01:10:07.998Z,95321.7
2019-05-22T01:11:10.262Z,95317.1
2019-05-22T01:12:12.852Z,95315.1
2019-05-22T01:13:15.297Z,95318.9
2019-05-22T01:14:17.455Z,95315.3
2019-05-22T01:15:19.893Z,95320.2
2019-05-22T01:16:22.083Z,95317.2
2019-05-22T01:17:23.417Z,95316.9
2019-05-22T01:18:25.836Z,95320
2019-05-22T01:19:27.992Z,95320.7
2019-05-22T01:20:30.163Z,95318
2019-05-22T01:21:32.343Z,95319.7
2019-05-22T01:22:34.517Z,95322.4
2019-05-22T01:23:36.683Z,95320.9
2019-05-22T01:24:38.837Z,95323
2019-05-22T01:25:41.269Z,95321.9
2019-05-22T01:26:43.444Z,95324
2019-05-22T01:27:45.629Z,95323.8
2019-05-22T01:28:47.786Z,95325
2019-05-22T01:29:49.937Z,95323.3
2019-05-22T01:30:52.370Z,95319.1
2019-05-22T01:31:54.800Z,95323.3
2019-05-22T01:32:57.243Z,95322.2
2019-05-22T01:33:59.399Z,95317.8
2019-05-22T01:35:01.841Z,95321.1
2019-05-22T01:36:04.253Z,95321.2
2019-05-22T01:37:06.439Z,95322.5
2019-05-22T01:38:08.590Z,95319.3
2019-05-22T01:39:11.017Z,95321.6
2019-05-22T01:40:13.449Z,95323.7
2019-05-22T01:41:15.876Z,95326.9
2019-05-22T01:42:18.300Z,95326
2019-05-22T01:43:20.739Z,95323
2019-05-22T01:44:22.632Z,95326
2019-05-22T01:45:25.066Z,95326.7
2019-05-22T01:46:27.022Z,95326.3
2019-05-22T01:47:29.459Z,95327.3
2019-05-22T01:48:31.816Z,95326.6
2019-05-22T01:49:33.900Z,95324.4
2019-05-22T01:50:36.366Z,95326.2
2019-05-22T01:51:38.526Z,95327.7
2019-05-22T01:52:40.395Z,95327.6
2019-05-22T01:53:42.558Z,95329
2019-05-22T01:54:44.445Z,95330.2
2019-05-22T01:55:46.885Z,95331.8
2019-05-22T01:56:49.322Z,95331.3
2019-05-22T01:57:51.491Z,95331.8
2019-05-22T01:58:53.353Z,95334.3
2019-05-22T01:59:55.524Z,95335
2019-05-22T02:00:57.692Z,95332.6
2019-05-22T02:01:59.861Z,95333.1
2019-05-22T02:03:02.604Z,95335.3
2019-05-22T02:04:04.502Z,95338.1
2019-05-22T02:05:06.672Z,95331.7
2019-05-22T02:06:08.827Z,95335.6
2019-05-22T02:07:10.970Z,95332.4
2019-05-22T02:08:13.397Z,95332.4
2019-05-22T02:09:15.272Z,95335.6
2019-05-22T02:10:17.699Z,95338.2
2019-05-22T02:11:19.577Z,95337.2
2019-05-22T02:12:22.049Z,95337
2019-05-22T02:13:24.484Z,95337.6
2019-05-22T02:14:26.986Z,95334.4
2019-05-22T02:15:29.418Z,95339
2019-05-22T02:16:31.851Z,95336.2
2019-05-22T02:17:34.273Z,95337
2019-05-22T02:18:36.699Z,95340.7
2019-05-22T02:19:39.368Z,95340.2
2019-05-22T02:20:41.654Z,95337.9
2019-05-22T02:21:43.800Z,95333.9
2019-05-22T02:22:45.679Z,95340.3
2019-05-22T02:23:47.850Z,95338.2
2019-05-22T02:24:49.725Z,95340.8
2019-05-22T02:25:51.883Z,95335.2
2019-05-22T02:26:54.055Z,95334.4
2019-05-22T02:27:56.197Z,95337.8
2019-05-22T02:28:58.345Z,95337.1
2019-05-22T02:30:00.502Z,95341.7
2019-05-22T02:31:02.970Z,95340.6
2019-05-22T02:32:05.394Z,95338.8
2019-05-22T02:33:07.016Z,95340.9
2019-05-22T02:34:09.475Z,95339.7
2019-05-22T02:35:11.897Z,95342.8
2019-05-22T02:36:14.330Z,95343.1
2019-05-22T02:37:16.452Z,95344
2019-05-22T02:38:18.890Z,95341.2
2019-05-22T02:39:21.332Z,95341.4
2019-05-22T02:40:24.098Z,95344.5
2019-05-22T02:41:26.523Z,95342.6
2019-05-22T02:42:28.965Z,95344.4
2019-05-22T02:43:31.397Z,95348.8
2019-05-22T02:44:33.834Z,95346.4
2019-05-22T02:45:36.287Z,95344.4
2019-05-22T02:46:38.725Z,95346.9
2019-05-22T02:47:40.607Z,95346.7
2019-05-22T02:48:43.686Z,95348.9
2019-05-22T02:49:46.125Z,95347
2019-05-22T02:50:48.278Z,95349.7
2019-05-22T02:51:50.704Z,95350.7
2019-05-22T02:52:52.306Z,95349.3
2019-05-22T02:53:54.733Z,95351.5
2019-05-22T02:54:57.172Z,95351.9
2019-05-22T02:55:59.338Z,95351.9
2019-05-22T02:57:01.767Z,95356.4
2019-05-22T02:58:04.066Z,95349.4
2019-05-22T02:59:06.203Z,95351.3
2019-05-22T03:00:08.370Z,95353.6
2019-05-22T03:01:10.867Z,95358.6
2019-05-22T03:02:13.036Z,95355.8
2019-05-22T03:03:15.467Z,95354.8
2019-05-22T03:04:17.634Z,95355.4
2019-05-22T03:05:20.111Z,95358.9
2019-05-22T03:06:22.634Z,95354.1
2019-05-22T03:07:24.795Z,95360.2
2019-05-22T03:08:26.693Z,95360.6
2019-05-22T03:09:29.122Z,95359.2
2019-05-22T03:10:31.010Z,95360.4
2019-05-22T03:12:39.089Z,95365.7
2019-05-22T03:13:41.526Z,95368.9
2019-05-22T03:14:43.654Z,95366.5
2019-05-22T03:15:46.097Z,95369.2
2019-05-22T03:16:48.527Z,95366.7
2019-05-22T03:17:50.750Z,95370.4
2019-05-22T03:19:58.174Z,95372
2019-05-22T03:21:00.345Z,95369.5
2019-05-22T03:22:02.773Z,95369.2
2019-05-22T03:23:05.228Z,95367.7
2019-05-22T03:24:07.115Z,95366.7
2019-05-22T03:25:09.544Z,95370.1
2019-05-22T03:26:12.191Z,95368.3
2019-05-22T03:27:14.356Z,95372.7
2019-05-22T03:28:16.792Z,95375.2
2019-05-22T03:29:19.247Z,95371.8
2019-05-22T03:30:21.864Z,95370.8
2019-05-22T03:31:24.316Z,95379.9
2019-05-22T03:32:26.777Z,95373.5
2019-05-22T03:33:29.254Z,95376.8
2019-05-22T03:34:31.386Z,95375.9
2019-05-22T03:35:34.179Z,95376.8
2019-05-22T03:36:36.339Z,95376.3
2019-05-22T03:37:38.494Z,95376.6
2019-05-22T03:38:40.365Z,95378
2019-05-22T03:39:42.821Z,95378.3
2019-05-22T03:40:44.971Z,95379
2019-05-22T03:41:47.229Z,95381.3
2019-05-22T03:42:49.375Z,95377.5
2019-05-22T03:43:51.259Z,95381.8
2019-05-22T03:44:53.426Z,95382.6
2019-05-22T03:45:55.594Z,95380.1
2019-05-22T03:48:03.150Z,95380.7
2019-05-22T03:49:06.162Z,95385.9
2019-05-22T03:50:08.371Z,95382.1
2019-05-22T03:51:10.798Z,95381.6
2019-05-22T03:52:13.235Z,95380.8
2019-05-22T03:53:15.674Z,95386.8
2019-05-22T03:54:18.125Z,95384
2019-05-22T03:55:20.550Z,95386.9
2019-05-22T03:56:22.725Z,95390.7
2019-05-22T03:57:25.165Z,95384
2019-05-22T03:58:27.121Z,95388.1
2019-05-22T03:59:29.560Z,95395.2
2019-05-22T04:00:31.982Z,95391.3
2019-05-22T04:01:34.409Z,95394.5
2019-05-22T04:02:36.870Z,95396.7
2019-05-22T04:03:39.302Z,95401.5
2019-05-22T04:04:41.755Z,95394.5
2019-05-22T04:05:44.187Z,95395.8
2019-05-22T04:06:46.618Z,95397.9
2019-05-22T04:07:49.051Z,95400.2
2019-05-22T04:08:51.193Z,95398.7
2019-05-22T04:09:53.381Z,95400.3
2019-05-22T04:10:55.900Z,95402.8
2019-05-22T04:11:58.337Z,95403.3
2019-05-22T04:13:00.700Z,95406.5
2019-05-22T04:14:03.129Z,95401.1
2019-05-22T04:15:05.275Z,95404.6
2019-05-22T04:16:07.698Z,95409.7
2019-05-22T04:17:10.182Z,95411.4
2019-05-22T04:18:12.340Z,95406.4
2019-05-22T04:19:14.921Z,95410.8
2019-05-22T04:20:17.357Z,95415.2
2019-05-22T04:21:19.697Z,95417.2
2019-05-22T04:22:22.133Z,95416.5
2019-05-22T04:23:24.568Z,95412.9
2019-05-22T04:24:27.001Z,95413
2019-05-22T04:25:29.172Z,95420.4
2019-05-22T04:26:31.798Z,95414.9
2019-05-22T04:27:34.286Z,95416.9
2019-05-22T04:28:36.425Z,95416.7
2019-05-22T04:29:39.090Z,95416.7
2019-05-22T04:30:41.091Z,95417
2019-05-22T04:31:44.128Z,95418.2
2019-05-22T04:32:46.572Z,95419.2
2019-05-22T04:33:48.730Z,95420.5
2019-05-22T04:34:51.155Z,95416
2019-05-22T04:35:53.027Z,95419
2019-05-22T04:36:55.203Z,95420.2
2019-05-22T04:37:57.362Z,95419.5
2019-05-22T04:38:59.824Z,95421.9
2019-05-22T04:40:02.659Z,95424
2019-05-22T04:41:05.077Z,95424.4
2019-05-22T04:42:07.212Z,95422
2019-05-22T04:43:09.635Z,95422.5
2019-05-22T04:44:11.501Z,95420
2019-05-22T04:45:13.929Z,95423.3
2019-05-22T04:46:16.908Z,95426.2
2019-05-22T04:47:19.064Z,95421
2019-05-22T04:48:21.150Z,95422.6
2019-05-22T04:49:23.285Z,95422.6
2019-05-22T04:50:25.898Z,95429.8
2019-05-22T04:51:29.138Z,95427.7
2019-05-22T04:52:31.381Z,95427.9
2019-05-22T04:53:34.587Z,95427.1
2019-05-22T04:54:37.028Z,95430.5
2019-05-22T04:55:38.911Z,95426.8
2019-05-22T04:56:41.342Z,95431.5
2019-05-22T04:57:43.796Z,95430.9
2019-05-22T04:58:46.218Z,95432.2
2019-05-22T04:59:48.386Z,95429.2
2019-05-22T05:00:50.838Z,95433.8
2019-05-22T05:01:52.973Z,95432.8
2019-05-22T05:02:54.832Z,95430.8
2019-05-22T05:03:57.257Z,95432.1
2019-05-22T05:04:59.485Z,95429.8
2019-05-22T05:06:05.869Z,95434.9
2019-05-22T05:07:08.368Z,95431.4
2019-05-22T05:08:10.329Z,95434.2
2019-05-22T05:09:11.925Z,95430.2
2019-05-22T05:10:14.355Z,95431.8
2019-05-22T05:11:17.386Z,95431.7
2019-05-22T05:12:19.970Z,95439
2019-05-22T05:13:22.427Z,95432.5
2019-05-22T05:14:25.387Z,95433.7
2019-05-22T05:15:27.848Z,95437.6
2019-05-22T05:16:29.699Z,95437.2
2019-05-22T05:17:31.845Z,95430.9
2019-05-22T05:18:34.264Z,95435
2019-05-22T05:19:36.699Z,95433.8
2019-05-22T05:20:39.137Z,95434.6
2019-05-22T05:21:41.279Z,95432.8
2019-05-22T05:22:43.827Z,95436.9
2019-05-22T05:23:45.799Z,95436.4
2019-05-22T05:24:47.987Z,95435.3
2019-05-22T05:25:50.435Z,95432.7
2019-05-22T05:26:52.897Z,95434.6
2019-05-22T05:27:55.350Z,95437.7
2019-05-22T05:28:57.791Z,95444.3
2019-05-22T05:30:00.239Z,95439.1
2019-05-22T05:31:02.834Z,95445.3
2019-05-22T05:32:05.006Z,95443
2019-05-22T05:33:07.197Z,95447.6
2019-05-22T05:34:09.651Z,95449.4
2019-05-22T05:35:12.125Z,95452.7
2019-05-22T05:36:14.274Z,95451.9
2019-05-22T05:37:16.704Z,95451.3
2019-05-22T05:38:19.263Z,95443.3
2019-05-22T05:39:21.427Z,95453.5
2019-05-22T05:40:23.855Z,95454
2019-05-22T05:41:26.277Z,95452.5
2019-05-22T05:42:28.713Z,95446.3
2019-05-22T05:43:31.158Z,95448.4
2019-05-22T05:44:32.792Z,95452.6
2019-05-22T05:45:34.962Z,95460.8
2019-05-22T05:46:37.407Z,95455.2
2019-05-22T05:47:39.826Z,95458.2
2019-05-22T05:48:41.989Z,95455.8
2019-05-22T05:49:44.433Z,95459.6
2019-05-22T05:50:46.323Z,95464.5
2019-05-22T05:51:48.768Z,95464.2
2019-05-22T05:52:51.030Z,95463.3
2019-05-22T05:53:53.633Z,95466.4
2019-05-22T05:54:55.802Z,95467.7
2019-05-22T05:55:58.229Z,95468.3
2019-05-22T05:57:00.404Z,95468.3
2019-05-22T05:58:02.849Z,95469
2019-05-22T05:59:05.555Z,95471.3
2019-05-22T06:00:08.022Z,95474
2019-05-22T06:01:10.007Z,95474.5
2019-05-22T06:02:12.440Z,95472.2
2019-05-22T06:03:15.659Z,95476.6
2019-05-22T06:04:32.117Z,95471.7
2019-05-22T06:05:25.494Z,95478.2
2019-05-22T06:06:27.925Z,95476.9
2019-05-22T06:07:30.364Z,95481.3
2019-05-22T06:08:32.814Z,95477.1
2019-05-22T06:09:35.356Z,95482
2019-05-22T06:10:37.783Z,95483
2019-05-22T06:11:40.239Z,95484.3
2019-05-22T06:12:42.684Z,95482.2
2019-05-22T06:13:44.563Z,95483.8
2019-05-22T06:14:47.602Z,95485.3
2019-05-22T06:15:50.033Z,95487.2
2019-05-22T06:16:52.467Z,95487.9
2019-05-22T06:17:56.117Z,95484.9
2019-05-22T06:18:58.778Z,95488.8
2019-05-22T06:20:00.995Z,95489.1
2019-05-22T06:22:08.412Z,95489.3
2019-05-22T06:23:10.594Z,95490.7
2019-05-22T06:24:12.737Z,95494.6
2019-05-22T06:25:15.508Z,95490.5
2019-05-22T06:26:17.706Z,95493
2019-05-22T06:27:20.249Z,95493.7
2019-05-22T06:28:22.666Z,95492.8
2019-05-22T06:30:30.087Z,95496.1
2019-05-22T06:31:32.298Z,95499.9
2019-05-22T06:32:34.762Z,95499
2019-05-22T06:33:37.190Z,95501.3
2019-05-22T06:34:39.623Z,95500.3
2019-05-22T06:35:42.047Z,95506.5
2019-05-22T06:36:44.472Z,95500.3
2019-05-22T06:37:46.900Z,95507.8
2019-05-22T06:38:49.323Z,95503.6
2019-05-22T06:39:51.757Z,95505.9
2019-05-22T06:40:54.179Z,95505.6
2019-05-22T06:41:56.601Z,95515.9
2019-05-22T06:42:59.025Z,95513.3
2019-05-22T06:44:01.458Z,95511.7
2019-05-22T06:45:06.512Z,95511.4
2019-05-22T06:46:08.995Z,95509.5
2019-05-22T06:47:11.440Z,95509
2019-05-22T06:48:13.903Z,95512.5
2019-05-22T06:49:16.333Z,95510.2
2019-05-22T06:50:18.225Z,95513.4
2019-05-22T06:51:21.324Z,95515
2019-05-22T06:52:23.484Z,95513
2019-05-22T06:53:25.646Z,95518.5
2019-05-22T06:54:28.099Z,95510.4
2019-05-22T06:55:30.269Z,95517.7
2019-05-22T06:56:32.450Z,95516.7
2019-05-22T06:57:35.155Z,95518.7
2019-05-22T06:58:37.300Z,95517.7
2019-05-22T06:59:39.488Z,95515.6
2019-05-22T07:00:41.366Z,95517
2019-05-22T07:01:43.513Z,95514.8
2019-05-22T07:02:45.965Z,95514.7
2019-05-22T07:03:48.103Z,95514.9
2019-05-22T07:04:50.703Z,95516.1
2019-05-22T07:05:53.182Z,95517.4
2019-05-22T07:06:55.763Z,95514.5
2019-05-22T07:07:58.335Z,95519
2019-05-22T07:09:00.497Z,95515.4
2019-05-22T07:10:03.089Z,95519.3
2019-05-22T07:11:05.570Z,95515.7
2019-05-22T07:12:07.721Z,95517.1
2019-05-22T07:13:09.608Z,95520.5
2019-05-22T07:14:12.141Z,95520.8
2019-05-22T07:15:14.558Z,95522
2019-05-22T07:16:17.000Z,95520.4
2019-05-22T07:17:19.464Z,95525.2
2019-05-22T07:18:21.630Z,95525.8
2019-05-22T07:19:24.052Z,95520.6
2019-05-22T07:20:25.955Z,95521.6
2019-05-22T07:22:33.387Z,95520.6
2019-05-22T07:23:35.826Z,95526.8
2019-05-22T07:24:38.522Z,95528.6
2019-05-22T07:25:40.865Z,95524.4
2019-05-22T07:26:43.325Z,95526.8
2019-05-22T07:27:45.753Z,95530.4
2019-05-22T07:28:47.666Z,95529.8
2019-05-22T07:29:50.102Z,95533.3
2019-05-22T07:30:52.522Z,95534.2
2019-05-22T07:31:55.034Z,95536.4
2019-05-22T07:32:56.927Z,95533.2
2019-05-22T07:33:59.341Z,95539.5
2019-05-22T07:35:01.641Z,95537.2
2019-05-22T07:37:09.244Z,95540.6
2019-05-22T07:38:11.699Z,95539.1
2019-05-22T07:39:14.155Z,95538.9
2019-05-22T07:40:16.587Z,95541.1
2019-05-22T07:41:20.896Z,95541.8
2019-05-22T07:42:23.050Z,95540.7
2019-05-22T07:43:25.487Z,95537.3
2019-05-22T07:44:27.920Z,95540.5
2019-05-22T07:45:30.355Z,95541.2
2019-05-22T07:46:32.566Z,95542.2
2019-05-22T07:47:34.979Z,95539
2019-05-22T07:48:37.421Z,95544.9
2019-05-22T07:49:39.307Z,95543.8
2019-05-22T07:50:41.783Z,95538.7
2019-05-22T07:52:49.077Z,95540.5
2019-05-22T07:53:51.504Z,95540.1
2019-05-22T07:54:53.654Z,95535.5
2019-05-22T07:55:56.483Z,95536.7
2019-05-22T07:56:58.354Z,95533.8
2019-05-22T07:58:00.516Z,95536
2019-05-22T07:59:02.963Z,95533.7
2019-05-22T08:00:04.815Z,95531.6
2019-05-22T08:01:06.976Z,95537.1
2019-05-22T08:02:09.161Z,95536.4
2019-05-22T08:03:11.040Z,95533.7
2019-05-22T08:04:13.527Z,95537.1
2019-05-22T08:05:15.962Z,95535.5
2019-05-22T08:06:18.398Z,95534.2
2019-05-22T08:07:20.831Z,95540.5
2019-05-22T08:08:23.257Z,95538.7
2019-05-22T08:09:25.428Z,95536.8
2019-05-22T08:10:27.709Z,95539.1
2019-05-22T08:11:30.153Z,95541.3
2019-05-22T08:12:32.663Z,95533.3
2019-05-22T08:13:35.107Z,95534.2
2019-05-22T08:14:37.535Z,95533.6
2019-05-22T08:15:40.001Z,95537.6
2019-05-22T08:16:42.463Z,95535.5
2019-05-22T08:17:44.650Z,95540.7
2019-05-22T08:18:47.099Z,95535.4
2019-05-22T08:19:49.552Z,95540.2
2019-05-22T08:20:51.971Z,95539.4
2019-05-22T08:22:58.834Z,95538.9
2019-05-22T08:24:01.316Z,95543.3
2019-05-22T08:25:03.764Z,95540.4
2019-05-22T08:26:06.204Z,95539.4
2019-05-22T08:27:08.368Z,95539.9
2019-05-22T08:28:10.803Z,95540.4
2019-05-22T08:29:13.232Z,95539.5
2019-05-22T08:30:15.446Z,95537.5
2019-05-22T08:31:17.870Z,95536.8
2019-05-22T08:32:20.300Z,95539.9
2019-05-22T08:33:22.738Z,95535.2
2019-05-22T08:34:24.889Z,95534.8
2019-05-22T08:35:27.324Z,95532.4
2019-05-22T08:36:29.775Z,95536.3
2019-05-22T08:37:31.910Z,95533.4
2019-05-22T08:38:34.094Z,95536
2019-05-22T08:39:36.534Z,95534
2019-05-22T08:40:38.980Z,95532.8
2019-05-22T08:41:41.154Z,95536.1
2019-05-22T08:42:43.595Z,95536
2019-05-22T08:44:50.447Z,95541.8
2019-05-22T08:45:53.005Z,95544.6
2019-05-22T08:46:55.466Z,95544.4
2019-05-22T08:47:57.954Z,95545.8
2019-05-22T08:49:00.332Z,95545.8
2019-05-22T08:50:02.959Z,95546.4
2019-05-22T08:51:05.280Z,95550
2019-05-22T08:53:12.747Z,95544.3
2019-05-22T08:54:15.197Z,95551.5
2019-05-22T08:55:17.619Z,95549.9
2019-05-22T08:56:20.098Z,95549.3
2019-05-22T08:57:22.799Z,95552.5
2019-05-22T08:58:25.297Z,95548
2019-05-22T08:59:27.757Z,95550.1
2019-05-22T09:00:30.194Z,95552.4
2019-05-22T09:01:32.632Z,95555.4
2019-05-22T09:02:35.085Z,95557.5
2019-05-22T09:03:37.258Z,95558.6
2019-05-22T09:04:39.685Z,95556
2019-05-22T09:05:41.835Z,95560.6
2019-05-22T09:06:44.262Z,95562.6
2019-05-22T09:07:46.437Z,95561.3
2019-05-22T09:08:48.568Z,95567.3
2019-05-22T09:09:50.725Z,95576.7
2019-05-22T09:10:52.614Z,95575.2
2019-05-22T09:11:55.044Z,95570.8
2019-05-22T09:12:57.483Z,95567.9
2019-05-22T09:13:59.918Z,95577.8
2019-05-22T09:15:02.085Z,95570.4
2019-05-22T09:16:04.555Z,95573.5
2019-05-22T09:17:06.852Z,95569.6
2019-05-22T09:18:09.320Z,95575.3
2019-05-22T09:19:12.345Z,95581.4
2019-05-22T09:20:15.180Z,95579.8
2019-05-22T09:21:17.117Z,95581.8
2019-05-22T09:22:19.547Z,95572.4
2019-05-22T09:23:21.978Z,95577
2019-05-22T09:24:24.407Z,95579.5
2019-05-22T09:25:26.888Z,95584.4
2019-05-22T09:26:29.040Z,95573.2
2019-05-22T09:27:30.914Z,95582
2019-05-22T09:28:33.146Z,95586.8
2019-05-22T09:29:35.571Z,95583.1
2019-05-22T09:30:37.450Z,95584
2019-05-22T09:31:40.151Z,95584.7
2019-05-22T09:32:42.577Z,95584.8
2019-05-22T09:33:45.037Z,95580.6
2019-05-22T09:34:46.657Z,95584.9
2019-05-22T09:35:49.094Z,95582.1
2019-05-22T09:36:51.615Z,95581.6
2019-05-22T09:37:54.137Z,95584.5
2019-05-22T09:38:56.572Z,95584
2019-05-22T09:39:58.730Z,95582.6
2019-05-22T09:41:00.892Z,95588.2
2019-05-22T09:42:03.117Z,95589.3
2019-05-22T09:43:05.563Z,95593.9
2019-05-22T09:44:07.987Z,95590.7
2019-05-22T09:45:10.421Z,95595.3
2019-05-22T09:46:12.849Z,95596.4
2019-05-22T09:47:15.268Z,95597.8
2019-05-22T09:48:17.149Z,95597.7
2019-05-22T09:49:21.717Z,95599.9
2019-05-22T09:50:25.794Z,95598.2
2019-05-22T09:51:28.290Z,95597.6
2019-05-22T09:52:30.469Z,95600.4
2019-05-22T09:53:32.907Z,95605.3
2019-05-22T09:54:35.336Z,95599.9
2019-05-22T09:55:37.796Z,95603.5
2019-05-22T09:56:39.952Z,95603.3
2019-05-22T09:57:42.388Z,95600.9
2019-05-22T09:58:44.528Z,95606.7
2019-05-22T09:59:46.956Z,95598.7
2019-05-22T10:00:49.418Z,95606.9
2019-05-22T10:01:51.847Z,95602.2
2019-05-22T10:02:53.966Z,95605.4
2019-05-22T10:03:55.859Z,95605.3
2019-05-22T10:04:57.722Z,95607.8
2019-05-22T10:06:00.848Z,95600.7
2019-05-22T10:07:03.389Z,95602.7
2019-05-22T10:08:05.810Z,95603.6
2019-05-22T10:09:08.244Z,95600.5
2019-05-22T10:10:10.678Z,95604.5
2019-05-22T10:11:13.149Z,95597.8
2019-05-22T10:12:15.574Z,95597.3
2019-05-22T10:13:17.706Z,95599.9
2019-05-22T10:14:20.285Z,95600.7
2019-05-22T10:15:22.819Z,95595.6
2019-05-22T10:16:25.807Z,95598.9
2019-05-22T10:17:27.994Z,95602.7
2019-05-22T10:18:30.157Z,95602.9
2019-05-22T10:19:32.737Z,95596.4
2019-05-22T10:20:35.208Z,95601.5
2019-05-22T10:21:37.837Z,95599.8
2019-05-22T10:22:39.993Z,95603.4
2019-05-22T10:23:42.115Z,95605.1
2019-05-22T10:24:44.252Z,95606.2
2019-05-22T10:25:46.416Z,95603
2019-05-22T10:26:48.853Z,95608.5
2019-05-22T10:27:51.288Z,95607.2
2019-05-22T10:28:53.502Z,95608.4
2019-05-22T10:29:55.936Z,95608.5
2019-05-22T10:31:01.234Z,95608.2
2019-05-22T10:32:04.355Z,95610.8
2019-05-22T10:33:06.535Z,95615.8
2019-05-22T10:34:08.958Z,95614.5
2019-05-22T10:35:11.104Z,95621.3
2019-05-22T10:36:13.584Z,95617.3
2019-05-22T10:37:16.014Z,95617.9
2019-05-22T10:38:18.494Z,95614.9
2019-05-22T10:39:20.654Z,95615.1
2019-05-22T10:40:27.589Z,95612.9
2019-05-22T10:41:29.506Z,95618.8
2019-05-22T10:42:31.947Z,95614.9
2019-05-22T10:43:33.833Z,95616.7
2019-05-22T10:44:35.966Z,95613.9
2019-05-22T10:45:38.122Z,95620.9
2019-05-22T10:46:40.551Z,95624
2019-05-22T10:47:42.988Z,95614.2
2019-05-22T10:48:45.430Z,95622.2
2019-05-22T10:49:48.196Z,95618.9
2019-05-22T10:50:50.632Z,95619.3
2019-05-22T10:51:53.050Z,95621
2019-05-22T10:52:56.604Z,95619.9
2019-05-22T10:53:58.757Z,95621.1
2019-05-22T10:55:01.185Z,95622.9
2019-05-22T10:56:03.996Z,95619.6
2019-05-22T10:57:06.149Z,95620.1
2019-05-22T10:58:08.756Z,95614.4
2019-05-22T10:59:10.934Z,95620.3
2019-05-22T11:00:13.121Z,95617.4
2019-05-22T11:01:15.570Z,95620.1
2019-05-22T11:02:17.473Z,95620.8
2019-05-22T11:03:19.907Z,95620.1
2019-05-22T11:04:22.369Z,95618.5
2019-05-22T11:05:24.850Z,95620.8
2019-05-22T11:06:27.272Z,95624.2
2019-05-22T11:07:29.703Z,95625.6
2019-05-22T11:09:37.330Z,95622.6
2019-05-22T11:10:39.487Z,95626.2
2019-05-22T11:11:41.630Z,95628.3
2019-05-22T11:12:43.782Z,95630
2019-05-22T11:14:51.549Z,95632.4
2019-05-22T11:15:53.754Z,95631.3
2019-05-22T11:16:55.916Z,95632
2019-05-22T11:17:58.064Z,95633.7
2019-05-22T11:19:00.255Z,95630.8
2019-05-22T11:20:02.674Z,95628.9
2019-05-22T11:21:05.663Z,95630
2019-05-22T11:22:08.295Z,95632.5
2019-05-22T11:23:11.263Z,95632.6
2019-05-22T11:24:13.408Z,95634.2
2019-05-22T11:25:15.826Z,95629.8
2019-05-22T11:26:18.247Z,95634.7
2019-05-22T11:27:20.402Z,95633.5
2019-05-22T11:28:22.902Z,95630.5
2019-05-22T11:29:25.375Z,95630.2
2019-05-22T11:30:27.288Z,95629.5
2019-05-22T11:31:29.944Z,95634.8
2019-05-22T11:32:32.462Z,95630.2
2019-05-22T11:33:35.905Z,95628.5
2019-05-22T11:34:38.326Z,95633
2019-05-22T11:35:40.532Z,95633.9
2019-05-22T11:36:42.962Z,95633.5
2019-05-22T11:37:45.508Z,95631.1
2019-05-22T11:38:47.650Z,95629.7
2019-05-22T11:39:50.132Z,95628.4
2019-05-22T11:40:51.994Z,95629.6
2019-05-22T11:41:54.421Z,95625.8
2019-05-22T11:42:56.548Z,95631.2
2019-05-22T11:43:59.016Z,95631.4
2019-05-22T11:45:01.483Z,95628.1
2019-05-22T11:46:03.661Z,95633.3
2019-05-22T11:47:05.947Z,95628.1
2019-05-22T11:48:08.375Z,95630
2019-05-22T11:49:10.897Z,95631.3
2019-05-22T11:50:13.090Z,95630.1
2019-05-22T11:51:15.510Z,95631.7
2019-05-22T11:52:17.376Z,95634.9
2019-05-22T11:53:19.822Z,95636.1
2019-05-22T11:54:22.240Z,95632.9
2019-05-22T11:56:29.389Z,95637.8
2019-05-22T11:57:31.828Z,95635.7
2019-05-22T11:58:33.980Z,95637.1
2019-05-22T11:59:35.846Z,95637.3
2019-05-22T12:00:38.406Z,95638.6
2019-05-22T12:01:40.834Z,95644.8
2019-05-22T12:02:43.265Z,95641.4
2019-05-22T12:03:46.040Z,95642.6
2019-05-22T12:04:50.055Z,95646.9
2019-05-22T12:05:52.486Z,95646
2019-05-22T12:06:55.546Z,95643.4
2019-05-22T12:07:57.927Z,95639.9
2019-05-22T12:09:00.361Z,95641.9
2019-05-22T12:10:02.244Z,95642.9
2019-05-22T12:11:04.857Z,95646
2019-05-22T12:12:07.307Z,95645
2019-05-22T12:13:10.626Z,95643.2
2019-05-22T12:14:14.353Z,95643.4
2019-05-22T12:15:16.556Z,95646.7
2019-05-22T12:16:19.037Z,95641.8
2019-05-22T12:18:26.728Z,95634.6
2019-05-22T12:19:29.238Z,95640.5
2019-05-22T12:20:31.706Z,95637.4
2019-05-22T12:21:34.146Z,95638.7
2019-05-22T12:22:36.588Z,95641.8
2019-05-22T12:23:39.014Z,95645.2
2019-05-22T12:24:41.449Z,95640.5
2019-05-22T12:25:43.578Z,95642.8
2019-05-22T12:26:45.735Z,95645.4
2019-05-22T12:27:48.451Z,95641.8
2019-05-22T12:28:50.882Z,95643.9
2019-05-22T12:29:54.134Z,95640.8
2019-05-22T12:30:56.566Z,95644.8
2019-05-22T12:31:59.010Z,95644.4
2019-05-22T12:33:01.624Z,95647.5
2019-05-22T12:34:04.048Z,95642.6
2019-05-22T12:35:06.483Z,95642.6
2019-05-22T12:36:08.942Z,95648
2019-05-22T12:37:11.397Z,95641.1
2019-05-22T12:38:13.279Z,95642.3
2019-05-22T12:39:16.056Z,95641.6
2019-05-22T12:40:18.222Z,95642.5
2019-05-22T12:41:20.114Z,95646.6
2019-05-22T12:42:22.274Z,95642
2019-05-22T12:43:24.696Z,95644.1
2019-05-22T12:44:27.366Z,95641.6
2019-05-22T12:45:29.792Z,95639.6
2019-05-22T12:46:32.227Z,95646.1
2019-05-22T12:47:34.376Z,95641
2019-05-22T12:48:36.527Z,95642.9
2019-05-22T12:49:38.962Z,95643.8
2019-05-22T12:50:41.457Z,95645
2019-05-22T12:51:43.652Z,95638.9
2019-05-22T12:52:46.118Z,95640.8
2019-05-22T12:53:48.664Z,95641
2019-05-22T12:55:56.086Z,95637.5
2019-05-22T12:56:57.973Z,95639
2019-05-22T12:58:00.436Z,95639.7
2019-05-22T12:59:02.878Z,95637.8